レゾリュート の空港の天気 - METARとTAF

レゾリュート空港 ( CYRB / YRB ) - カナダ ヌナブト準州レゾリュート
飛行場実況気象(Metar)
観測時間08/22 11:36 CDT (08/22 16:36 UTC)
風向・風速南東 5m/s
視程3200m
天気現象もや
全天の4割程度の雲 雲底高度 150m
全天を覆う雲 雲底高度 910m
気温5℃
湿度100%
気圧1008.7hPa
METARCYRB 221636Z 13009KT 2SM BR SCT005 OVC030 05/05 A2977 RMK ST3SC5 SLP087
過去の天気等 Google飛行場航空写真 Wunderground天気予報

過去48時間のMETAR

飛行場予報(TAF)
発表時間: 8/22 10:19 CDT (8/22 15:19 UTC)
予報対象時間: 22日10時 CDT ~ 23日7時 CDT
風向・風速南南東 6m/s
視程400m
天気現象弱い霧雨 霧
全天を覆う雲 雲底高度 60m
22日10時 CDT ~ 22日15時 CDT に一時的に
視程1610m
天気現象弱い雨 もや
全天を覆う雲 雲底高度 120m
22日13時 CDT ~ 22日15時 CDT に徐々に
風向・風速東南東 13m/s 瞬間風速 18m/s
22日15時 CDT から
風向・風速東南東 13m/s 瞬間風速 18m/s
視程1610m
天気現象弱い雨 もや
全天を覆う雲 雲底高度 90m
22日15時 CDT ~ 22日24時 CDT に一時的に
視程4830m
天気現象弱い雨 もや
全天を覆う雲 雲底高度 240m
23日0時 CDT から
風向・風速東南東 18m/s 瞬間風速 23m/s
視程10km以上
全天の4割程度の雲 雲底高度 240m
全天を覆う雲 雲底高度 910m
23日0時 CDT ~ 23日7時 CDT に一時的に
視程4830m
天気現象弱いしゅう雨 もや
全天の8割程度の雲 雲底高度 240m
全天を覆う雲 雲底高度 460m
TAF AMD CYRB 221519Z 2215/2312 15012KT 1/4SM -DZ FG OVC002
TEMPO 2215/2220 1SM -RA BR OVC004
BECMG 2218/2220 11025G35KT
FM222000 11025G35KT 1SM -RA BR OVC003
TEMPO 2220/2305 3SM -RA BR OVC008
FM230500 11035G45KT P6SM SCT008 OVC030
TEMPO 2305/2312 3SM -SHRA BR BKN008 OVC015 RMK NXT FCST BY 221800Z